createdAt,value
2022-08-29T00:00:25.302Z,5.22
2022-08-29T00:02:56.601Z,4.33
2022-08-29T00:05:28.166Z,5.40
2022-08-29T00:07:58.359Z,4.45
2022-08-29T00:10:26.569Z,5.13
2022-08-29T00:12:57.753Z,3.08
2022-08-29T00:15:26.234Z,4.10
2022-08-29T00:17:54.203Z,4.13
2022-08-29T00:20:33.934Z,5.60
2022-08-29T00:23:02.617Z,4.07
2022-08-29T00:25:31.243Z,4.88
2022-08-29T00:28:00.827Z,4.90
2022-08-29T00:30:29.258Z,4.13
2022-08-29T00:32:57.124Z,5.22
2022-08-29T00:35:27.061Z,4.18
2022-08-29T00:37:55.706Z,4.50
2022-08-29T00:40:26.366Z,4.15
2022-08-29T00:42:54.874Z,4.77
2022-08-29T00:45:24.462Z,3.83
2022-08-29T00:47:54.074Z,4.05
2022-08-29T00:50:28.598Z,5.70
2022-08-29T00:52:57.340Z,6.35
2022-08-29T00:55:27.402Z,4.93
2022-08-29T00:57:58.045Z,4.70
2022-08-29T01:00:29.000Z,4.38
2022-08-29T01:02:57.331Z,4.28
2022-08-29T01:05:25.629Z,4.73
2022-08-29T01:07:53.676Z,4.60
2022-08-29T01:10:39.846Z,6.27
2022-08-29T01:13:09.166Z,4.30
2022-08-29T01:15:40.142Z,4.50
2022-08-29T01:18:09.018Z,5.18
2022-08-29T01:20:41.326Z,3.88
2022-08-29T01:23:15.564Z,5.30
2022-08-29T01:25:48.185Z,5.18
2022-08-29T01:28:19.934Z,4.13
2022-08-29T01:31:03.654Z,4.95
2022-08-29T01:33:40.918Z,5.47
2022-08-29T01:36:10.625Z,3.42
2022-08-29T01:38:38.547Z,5.20
2022-08-29T01:41:08.106Z,4.25
2022-08-29T01:43:41.213Z,4.53
2022-08-29T01:46:09.679Z,3.60
2022-08-29T01:48:39.901Z,4.55
2022-08-29T01:51:07.914Z,3.55
2022-08-29T01:53:36.553Z,5.25
2022-08-29T01:56:12.599Z,4.70
2022-08-29T01:58:40.442Z,4.15
2022-08-29T02:01:09.317Z,5.33
2022-08-29T02:03:37.366Z,3.75
2022-08-29T02:06:05.678Z,3.28
2022-08-29T02:08:33.632Z,4.03
2022-08-29T02:11:01.553Z,4.93
2022-08-29T02:13:30.761Z,5.93
2022-08-29T02:15:58.651Z,3.20
2022-08-29T02:18:26.477Z,5.60
2022-08-29T02:20:54.278Z,3.72
2022-08-29T02:23:30.532Z,4.22
2022-08-29T02:25:59.229Z,4.00
2022-08-29T02:28:27.091Z,4.27
2022-08-29T02:30:57.079Z,4.32
2022-08-29T02:33:25.936Z,4.57
2022-08-29T02:35:56.533Z,3.63
2022-08-29T02:38:25.555Z,4.28
2022-08-29T02:40:53.875Z,3.40
2022-08-29T02:43:23.577Z,4.60
2022-08-29T02:45:51.676Z,5.15
2022-08-29T02:48:21.355Z,3.50
2022-08-29T02:50:52.150Z,3.72
2022-08-29T02:53:22.001Z,3.58
2022-08-29T02:55:52.004Z,3.77
2022-08-29T02:58:20.458Z,4.65
2022-08-29T03:00:48.760Z,3.40
2022-08-29T03:03:16.559Z,5.32
2022-08-29T03:05:45.773Z,3.90
2022-08-29T03:08:14.916Z,4.77
2022-08-29T03:10:43.203Z,3.95
2022-08-29T03:13:11.080Z,4.53
2022-08-29T03:15:39.107Z,4.82
2022-08-29T03:18:07.440Z,5.32
2022-08-29T03:20:36.789Z,4.80
2022-08-29T03:23:06.928Z,4.40
2022-08-29T03:25:36.989Z,3.65
2022-08-29T03:28:05.118Z,4.00
2022-08-29T03:30:32.992Z,5.67
2022-08-29T03:33:02.390Z,5.40
2022-08-29T03:35:30.286Z,5.95
2022-08-29T03:37:58.095Z,4.50
2022-08-29T03:40:27.330Z,5.03
2022-08-29T03:42:55.913Z,4.85
2022-08-29T03:45:25.514Z,5.28
2022-08-29T03:47:53.867Z,5.65
2022-08-29T03:50:22.806Z,5.45
2022-08-29T03:52:50.917Z,5.70
2022-08-29T03:55:19.537Z,4.53
2022-08-29T03:57:49.220Z,5.25
2022-08-29T04:00:19.026Z,4.68
2022-08-29T04:02:48.203Z,5.18
2022-08-29T04:05:18.077Z,5.00
2022-08-29T04:07:48.705Z,4.25
2022-08-29T04:10:19.331Z,4.77
2022-08-29T04:12:52.558Z,4.13
2022-08-29T04:15:23.393Z,5.35
2022-08-29T04:17:52.952Z,4.80
2022-08-29T04:20:25.081Z,4.72
2022-08-29T04:22:54.055Z,5.80
2022-08-29T04:25:23.190Z,4.38
2022-08-29T04:27:52.394Z,5.13
2022-08-29T04:30:22.983Z,4.93
2022-08-29T04:32:51.027Z,5.10
2022-08-29T04:35:19.055Z,5.18
2022-08-29T04:37:46.886Z,6.70
2022-08-29T04:40:16.636Z,5.43
2022-08-29T04:42:44.836Z,5.40
2022-08-29T04:45:16.400Z,5.75
2022-08-29T04:47:44.580Z,6.10
2022-08-29T04:50:15.123Z,7.78
2022-08-29T04:52:43.854Z,5.05
2022-08-29T04:55:12.154Z,7.82
2022-08-29T04:57:42.067Z,6.28
2022-08-29T05:00:13.970Z,5.25
2022-08-29T05:02:44.586Z,5.82
2022-08-29T05:05:14.904Z,5.25
2022-08-29T05:07:43.328Z,6.40
2022-08-29T05:10:14.495Z,6.18
2022-08-29T05:12:43.322Z,6.63
2022-08-29T05:15:12.535Z,6.50
2022-08-29T05:17:40.514Z,6.88
2022-08-29T05:20:11.093Z,7.55
2022-08-29T05:22:39.523Z,5.80
2022-08-29T05:25:08.345Z,6.27
2022-08-29T05:27:36.289Z,6.53
2022-08-29T05:30:05.731Z,5.22
2022-08-29T05:32:33.660Z,6.25
2022-08-29T05:35:01.764Z,5.53
2022-08-29T05:37:31.052Z,5.63
2022-08-29T05:39:58.925Z,5.32
2022-08-29T05:42:27.595Z,6.32
2022-08-29T05:44:55.467Z,7.30
2022-08-29T05:47:24.124Z,6.65
2022-08-29T05:49:52.337Z,7.00
2022-08-29T05:52:21.861Z,6.95
2022-08-29T05:54:51.290Z,7.00
2022-08-29T05:57:22.395Z,6.47
2022-08-29T05:59:51.581Z,10.18
2022-08-29T06:02:20.232Z,6.78
2022-08-29T06:04:48.160Z,7.55
2022-08-29T06:07:16.361Z,7.82
2022-08-29T06:09:45.020Z,7.28
2022-08-29T06:12:16.241Z,8.50
2022-08-29T06:14:50.478Z,8.27
2022-08-29T06:17:18.996Z,7.35
2022-08-29T06:19:46.861Z,7.35
2022-08-29T06:22:16.543Z,7.57
2022-08-29T06:24:45.288Z,6.78
2022-08-29T06:27:16.610Z,7.50
2022-08-29T06:29:44.421Z,9.55
2022-08-29T06:32:12.998Z,8.35
2022-08-29T06:34:40.836Z,6.57
2022-08-29T06:37:08.676Z,6.55
2022-08-29T06:39:36.752Z,7.38
2022-08-29T06:42:05.130Z,7.78
2022-08-29T06:44:35.324Z,7.15
2022-08-29T06:47:03.340Z,7.63
2022-08-29T06:49:32.207Z,6.63
2022-08-29T06:52:00.078Z,5.43
2022-08-29T06:54:29.592Z,7.70
2022-08-29T06:56:58.230Z,7.95
2022-08-29T06:59:26.323Z,7.93
2022-08-29T07:01:56.163Z,6.65
2022-08-29T07:04:26.531Z,6.33
2022-08-29T07:06:54.736Z,6.38
2022-08-29T07:09:22.525Z,7.97
2022-08-29T07:11:50.594Z,9.50
2022-08-29T07:14:18.437Z,7.70
2022-08-29T07:16:46.326Z,8.20
2022-08-29T07:19:15.550Z,6.90
2022-08-29T07:21:43.394Z,6.63
2022-08-29T07:24:11.324Z,9.57
2022-08-29T07:26:42.510Z,7.05
2022-08-29T07:29:16.008Z,5.40
2022-08-29T07:31:44.973Z,6.28
2022-08-29T07:34:13.066Z,9.10
2022-08-29T07:36:42.241Z,8.03
2022-08-29T07:39:12.790Z,6.40
2022-08-29T07:41:41.551Z,7.32
2022-08-29T07:44:09.655Z,7.53
2022-08-29T07:46:37.704Z,8.40
2022-08-29T07:49:06.614Z,6.82
2022-08-29T07:51:34.885Z,7.30
2022-08-29T07:54:04.557Z,8.20
2022-08-29T07:56:37.919Z,6.53
2022-08-29T07:59:06.764Z,8.27
2022-08-29T08:01:35.630Z,8.70
2022-08-29T08:04:04.182Z,6.13
2022-08-29T08:06:34.385Z,6.65
2022-08-29T08:09:05.562Z,6.70
2022-08-29T08:11:33.414Z,7.22
2022-08-29T08:14:01.588Z,8.32
2022-08-29T08:16:30.628Z,8.43
2022-08-29T08:18:59.100Z,7.43
2022-08-29T08:21:27.427Z,5.72
2022-08-29T08:23:55.380Z,4.45
2022-08-29T08:26:24.682Z,5.32
2022-08-29T08:28:53.454Z,8.43
2022-08-29T08:31:23.741Z,5.95
2022-08-29T08:33:51.921Z,5.43
2022-08-29T08:36:23.114Z,8.88
2022-08-29T08:38:52.289Z,5.97
2022-08-29T08:41:29.887Z,5.82
2022-08-29T08:44:00.594Z,6.57
2022-08-29T08:46:33.858Z,5.90
2022-08-29T08:49:03.513Z,6.20
2022-08-29T08:51:33.476Z,7.63
2022-08-29T08:54:04.341Z,5.78
2022-08-29T08:56:36.344Z,7.43
2022-08-29T08:59:07.111Z,9.82
2022-08-29T09:01:38.884Z,8.60
2022-08-29T09:04:20.585Z,7.07
2022-08-29T09:06:55.264Z,8.48
2022-08-29T09:09:30.070Z,6.75
2022-08-29T09:12:07.283Z,8.32
2022-08-29T09:14:44.747Z,6.50
2022-08-29T09:17:16.445Z,6.13
2022-08-29T09:19:46.366Z,6.68
2022-08-29T09:22:18.392Z,7.10
2022-08-29T09:24:49.912Z,4.18
2022-08-29T09:27:20.693Z,4.47
2022-08-29T09:29:49.666Z,4.15
2022-08-29T09:32:22.281Z,5.38
2022-08-29T09:37:39.899Z,6.55
2022-08-29T09:40:11.306Z,6.67
2022-08-29T09:42:43.989Z,8.77
2022-08-29T09:45:24.941Z,4.95
2022-08-29T09:48:09.770Z,5.65
2022-08-29T09:50:37.689Z,5.37
2022-08-29T09:53:24.463Z,4.97
2022-08-29T09:55:53.913Z,6.00
2022-08-29T09:58:34.230Z,6.28
2022-08-29T10:01:09.721Z,6.20
2022-08-29T10:03:43.124Z,5.22
2022-08-29T10:06:15.098Z,6.65
2022-08-29T10:08:44.718Z,7.32
2022-08-29T10:11:21.314Z,5.88
2022-08-29T10:13:53.209Z,5.85
2022-08-29T10:16:33.222Z,5.75
2022-08-29T10:19:04.548Z,6.47
2022-08-29T10:21:36.430Z,4.68
2022-08-29T10:24:30.301Z,7.30
2022-08-29T10:27:04.809Z,6.00
2022-08-29T10:29:48.351Z,6.53
2022-08-29T10:32:26.906Z,3.17
2022-08-29T10:35:02.826Z,5.18
2022-08-29T10:37:38.871Z,5.95
2022-08-29T10:40:11.525Z,5.82
2022-08-29T10:42:45.968Z,5.07
2022-08-29T10:45:19.089Z,6.22
2022-08-29T10:47:53.112Z,5.65
2022-08-29T10:50:46.149Z,4.10
2022-08-29T10:53:18.512Z,7.38
2022-08-29T10:55:54.107Z,6.05
2022-08-29T10:58:29.824Z,5.88
2022-08-29T11:01:09.019Z,6.28
2022-08-29T11:03:40.442Z,4.95
2022-08-29T11:06:10.867Z,4.97
2022-08-29T11:08:41.670Z,5.43
2022-08-29T11:11:09.807Z,5.95
2022-08-29T11:13:42.101Z,5.30
2022-08-29T11:16:15.651Z,4.78
2022-08-29T11:18:47.161Z,6.03
2022-08-29T11:21:24.119Z,6.50
2022-08-29T11:23:52.171Z,5.93
2022-08-29T11:26:29.011Z,4.53
2022-08-29T11:28:59.484Z,5.32
2022-08-29T11:31:39.361Z,5.03
2022-08-29T11:34:18.693Z,5.87
2022-08-29T11:37:08.246Z,4.35
2022-08-29T11:39:50.735Z,3.78
2022-08-29T11:45:10.284Z,4.38
2022-08-29T11:47:42.039Z,3.80
2022-08-29T11:50:22.296Z,4.43
2022-08-29T11:52:52.866Z,5.25
2022-08-29T11:55:32.188Z,5.57
2022-08-29T11:58:05.815Z,5.13
2022-08-29T12:00:58.472Z,4.63
2022-08-29T12:03:55.050Z,6.07
2022-08-29T12:06:25.743Z,5.37
2022-08-29T12:09:01.736Z,5.38
2022-08-29T12:12:10.358Z,4.05
2022-08-29T12:14:40.234Z,3.83
2022-08-29T12:17:10.293Z,4.75
2022-08-29T12:19:53.978Z,4.63
2022-08-29T12:22:57.439Z,5.93
2022-08-29T12:25:39.290Z,4.30
2022-08-29T12:28:28.511Z,5.13
2022-08-29T12:31:08.104Z,4.65
2022-08-29T12:33:43.296Z,3.80
2022-08-29T12:36:26.732Z,5.32
2022-08-29T12:39:05.608Z,7.43
2022-08-29T12:41:46.693Z,5.17
2022-08-29T12:44:16.873Z,4.38
2022-08-29T12:46:46.482Z,3.92
2022-08-29T12:49:21.993Z,5.05
2022-08-29T12:51:56.405Z,3.87
2022-08-29T12:54:35.314Z,3.67
2022-08-29T12:57:04.136Z,3.42
2022-08-29T12:59:32.487Z,3.90
2022-08-29T13:02:00.448Z,4.03
2022-08-29T13:04:33.615Z,3.92
2022-08-29T13:07:04.453Z,4.40
2022-08-29T13:09:34.481Z,3.03
2022-08-29T13:12:11.666Z,5.07
2022-08-29T13:14:54.843Z,5.00
2022-08-29T13:17:25.257Z,4.25
2022-08-29T13:20:30.633Z,3.10
2022-08-29T13:23:09.572Z,3.30
2022-08-29T13:25:44.839Z,3.60
2022-08-29T13:28:16.106Z,3.45
2022-08-29T13:30:47.354Z,4.65
2022-08-29T13:33:35.689Z,3.25
2022-08-29T13:36:29.637Z,3.30
2022-08-29T13:39:17.903Z,4.57
2022-08-29T13:41:48.088Z,2.63
2022-08-29T13:44:18.396Z,2.92
2022-08-29T13:46:47.444Z,3.40
2022-08-29T13:49:20.433Z,3.22
2022-08-29T13:51:48.303Z,4.00
2022-08-29T13:54:17.642Z,3.50
2022-08-29T13:56:48.579Z,2.80
2022-08-29T13:59:17.157Z,3.47
2022-08-29T14:04:38.934Z,2.53
2022-08-29T14:07:08.759Z,3.13
2022-08-29T14:09:41.481Z,4.05
2022-08-29T14:12:10.216Z,4.72
2022-08-29T14:14:38.021Z,3.75
2022-08-29T14:17:06.191Z,3.50
2022-08-29T14:19:34.169Z,3.17
2022-08-29T14:22:02.528Z,2.60
2022-08-29T14:24:31.475Z,2.60
2022-08-29T14:27:02.681Z,3.20
2022-08-29T14:29:31.209Z,2.88
2022-08-29T14:31:59.065Z,2.90
2022-08-29T14:34:32.800Z,3.97
2022-08-29T14:37:01.194Z,3.33
2022-08-29T14:39:29.188Z,4.17
2022-08-29T14:41:57.169Z,3.40
2022-08-29T14:44:27.256Z,2.90
2022-08-29T14:46:55.246Z,3.37
2022-08-29T14:49:23.103Z,3.13
2022-08-29T14:51:51.086Z,2.78
2022-08-29T14:54:19.237Z,2.83
2022-08-29T14:56:49.219Z,3.42
2022-08-29T14:59:18.282Z,3.65
2022-08-29T15:01:53.429Z,3.23
2022-08-29T15:04:35.811Z,3.58
2022-08-29T15:07:07.497Z,3.10
2022-08-29T15:09:35.688Z,2.85
2022-08-29T15:12:03.931Z,3.07
2022-08-29T15:14:32.105Z,3.30
2022-08-29T15:17:01.351Z,4.70
2022-08-29T15:22:18.060Z,4.38
2022-08-29T15:24:46.394Z,3.40
2022-08-29T15:27:14.350Z,3.40
2022-08-29T15:29:42.202Z,3.00
2022-08-29T15:32:12.101Z,3.63
2022-08-29T15:34:41.217Z,4.55
2022-08-29T15:37:11.149Z,2.88
2022-08-29T15:39:39.282Z,4.40
2022-08-29T15:42:10.952Z,3.88
2022-08-29T15:44:39.578Z,4.03
2022-08-29T15:47:10.554Z,3.25
2022-08-29T15:49:40.530Z,2.88
2022-08-29T15:52:08.499Z,4.65
2022-08-29T15:54:36.669Z,3.47
2022-08-29T15:57:04.842Z,3.05
2022-08-29T15:59:56.440Z,4.97
2022-08-29T16:02:20.629Z,3.60
2022-08-29T16:04:53.660Z,4.03
2022-08-29T16:07:25.433Z,3.58
2022-08-29T16:09:57.766Z,3.53
2022-08-29T16:12:26.073Z,3.30
2022-08-29T16:15:02.447Z,4.83
2022-08-29T16:17:32.591Z,3.25
2022-08-29T16:20:02.335Z,3.08
2022-08-29T16:22:30.829Z,4.53
2022-08-29T16:24:58.990Z,2.90
2022-08-29T16:27:26.861Z,4.47
2022-08-29T16:29:56.116Z,3.65
2022-08-29T16:32:23.995Z,4.10
2022-08-29T16:34:51.988Z,4.85
2022-08-29T16:37:21.230Z,3.20
2022-08-29T16:39:49.045Z,3.22
2022-08-29T16:42:17.252Z,3.28
2022-08-29T16:44:45.113Z,4.32
2022-08-29T16:47:13.090Z,4.80
2022-08-29T16:49:41.262Z,4.57
2022-08-29T16:52:09.194Z,4.33
2022-08-29T16:54:38.437Z,3.35
2022-08-29T16:57:06.490Z,4.40
2022-08-29T16:59:35.670Z,4.45
2022-08-29T17:02:05.545Z,3.42
2022-08-29T17:04:33.611Z,3.80
2022-08-29T17:07:02.420Z,4.53
2022-08-29T17:09:29.152Z,4.65
2022-08-29T17:11:57.437Z,3.58
2022-08-29T17:14:29.085Z,3.83
2022-08-29T17:16:57.129Z,4.10
2022-08-29T17:19:25.414Z,5.32
2022-08-29T17:21:53.647Z,4.00
2022-08-29T17:24:21.915Z,3.80
2022-08-29T17:26:49.913Z,4.45
2022-08-29T17:29:19.224Z,3.73
2022-08-29T17:31:47.190Z,9.32
2022-08-29T17:34:16.193Z,5.13
2022-08-29T17:36:44.614Z,4.35
2022-08-29T17:39:13.125Z,4.57
2022-08-29T17:41:41.390Z,4.35
2022-08-29T17:44:11.353Z,3.90
2022-08-29T17:46:40.557Z,4.13
2022-08-29T17:49:10.401Z,4.22
2022-08-29T17:51:39.602Z,4.25
2022-08-29T17:54:12.244Z,5.60
2022-08-29T17:56:44.549Z,3.72
2022-08-29T17:59:12.945Z,6.57
2022-08-29T18:01:42.185Z,8.10
2022-08-29T18:04:10.834Z,8.10
2022-08-29T18:06:39.131Z,5.60
2022-08-29T18:09:07.675Z,5.03
2022-08-29T18:11:37.104Z,5.15
2022-08-29T18:14:04.978Z,5.47
2022-08-29T18:16:32.918Z,5.97
2022-08-29T18:19:02.359Z,4.95
2022-08-29T18:21:30.543Z,5.90
2022-08-29T18:23:58.394Z,5.97
2022-08-29T18:26:26.710Z,5.32
2022-08-29T18:28:54.850Z,4.50
2022-08-29T18:31:23.539Z,5.97
2022-08-29T18:34:00.983Z,4.72
2022-08-29T18:36:31.197Z,5.00
2022-08-29T18:38:59.105Z,4.30
2022-08-29T18:41:27.305Z,4.60
2022-08-29T18:43:55.241Z,7.32
2022-08-29T18:46:23.181Z,4.87
2022-08-29T18:48:51.204Z,5.15
2022-08-29T18:51:19.413Z,5.90
2022-08-29T18:53:49.061Z,16.17
2022-08-29T18:56:17.174Z,18.90
2022-08-29T18:58:45.094Z,7.35
2022-08-29T19:01:14.323Z,5.20
2022-08-29T19:03:42.466Z,6.97
2022-08-29T19:06:10.701Z,3.75
2022-08-29T19:08:39.506Z,6.35
2022-08-29T19:11:11.191Z,8.00
2022-08-29T19:13:39.525Z,6.40
2022-08-29T19:16:09.497Z,5.10
2022-08-29T19:18:37.748Z,5.90
2022-08-29T19:21:07.656Z,7.00
2022-08-29T19:23:37.523Z,5.63
2022-08-29T19:26:08.828Z,8.10
2022-08-29T19:28:37.028Z,6.82
2022-08-29T19:31:06.499Z,6.35
2022-08-29T19:33:35.327Z,5.97
2022-08-29T19:36:04.704Z,8.10
2022-08-29T19:38:32.775Z,7.70
2022-08-29T19:41:01.208Z,8.05
2022-08-29T19:43:33.189Z,6.10
2022-08-29T19:46:01.732Z,6.93
2022-08-29T19:48:30.133Z,6.63
2022-08-29T19:50:57.986Z,7.63
2022-08-29T19:53:26.839Z,9.02
2022-08-29T19:55:56.042Z,8.07
2022-08-29T19:58:31.420Z,8.10
2022-08-29T20:01:02.650Z,6.97
2022-08-29T20:03:31.396Z,6.85
2022-08-29T20:05:59.717Z,10.48
2022-08-29T20:08:29.203Z,8.20
2022-08-29T20:10:59.352Z,7.17
2022-08-29T20:13:32.858Z,7.25
2022-08-29T20:16:10.564Z,8.38
2022-08-29T20:18:40.521Z,6.13
2022-08-29T20:21:08.451Z,7.10
2022-08-29T20:23:38.861Z,7.40
2022-08-29T20:26:12.831Z,7.13
2022-08-29T20:28:41.719Z,9.37
2022-08-29T20:31:11.191Z,6.82
2022-08-29T20:33:41.394Z,7.57
2022-08-29T20:36:39.006Z,8.30
2022-08-29T20:39:08.107Z,8.30
2022-08-29T20:41:36.158Z,7.28
2022-08-29T20:44:07.467Z,7.10
2022-08-29T20:46:39.499Z,8.73
2022-08-29T20:49:07.531Z,7.10
2022-08-29T20:51:36.169Z,8.27
2022-08-29T20:54:04.077Z,9.10
2022-08-29T20:56:32.789Z,7.18
2022-08-29T20:59:00.618Z,9.48
2022-08-29T21:01:28.587Z,8.73
2022-08-29T21:04:15.544Z,7.53
2022-08-29T21:06:49.230Z,8.85
2022-08-29T21:09:17.051Z,8.85
2022-08-29T21:11:44.948Z,8.20
2022-08-29T21:14:12.862Z,6.45
2022-08-29T21:16:40.847Z,8.43
2022-08-29T21:19:10.194Z,8.10
2022-08-29T21:21:38.511Z,6.28
2022-08-29T21:24:07.120Z,7.15
2022-08-29T21:26:35.393Z,6.07
2022-08-29T21:29:03.354Z,5.65
2022-08-29T21:31:31.522Z,5.97
2022-08-29T21:34:02.245Z,5.10
2022-08-29T21:36:36.136Z,4.80
2022-08-29T21:39:05.454Z,7.13
2022-08-29T21:41:34.158Z,6.10
2022-08-29T21:44:02.034Z,5.28
2022-08-29T21:46:32.272Z,6.63
2022-08-29T21:49:01.756Z,5.88
2022-08-29T21:51:31.184Z,6.15
2022-08-29T21:54:00.766Z,5.07
2022-08-29T21:56:31.413Z,5.68
2022-08-29T21:58:59.474Z,5.90
2022-08-29T22:01:29.964Z,7.30
2022-08-29T22:03:59.249Z,5.15
2022-08-29T22:06:27.839Z,5.00
2022-08-29T22:08:57.809Z,7.03
2022-08-29T22:11:37.740Z,6.38
2022-08-29T22:14:06.422Z,7.10
2022-08-29T22:16:33.687Z,7.07
2022-08-29T22:19:04.320Z,6.17
2022-08-29T22:21:34.937Z,6.70
2022-08-29T22:24:03.479Z,4.93
2022-08-29T22:26:32.738Z,4.50
2022-08-29T22:29:04.454Z,6.88
2022-08-29T22:31:32.450Z,5.10
2022-08-29T22:34:00.337Z,5.80
2022-08-29T22:36:28.572Z,6.43
2022-08-29T22:38:56.877Z,5.25
2022-08-29T22:41:25.403Z,6.50
2022-08-29T22:44:31.624Z,6.40
2022-08-29T22:46:44.194Z,5.50
2022-08-29T22:49:12.070Z,6.28
2022-08-29T22:51:39.968Z,5.68
2022-08-29T22:54:36.888Z,6.50
2022-08-29T22:57:06.820Z,5.63
2022-08-29T22:59:37.178Z,8.18
2022-08-29T23:02:05.883Z,7.90
2022-08-29T23:04:34.060Z,5.60
2022-08-29T23:07:02.411Z,5.03
2022-08-29T23:09:35.068Z,6.07
2022-08-29T23:12:05.606Z,7.32
2022-08-29T23:14:35.633Z,6.93
2022-08-29T23:17:05.424Z,5.50
2022-08-29T23:19:33.559Z,6.38
2022-08-29T23:22:02.187Z,4.10
2022-08-29T23:24:30.451Z,5.32
2022-08-29T23:26:58.310Z,8.30
2022-08-29T23:29:27.019Z,4.72
2022-08-29T23:31:54.951Z,8.40
2022-08-29T23:34:24.137Z,5.53
2022-08-29T23:36:51.976Z,6.35
2022-08-29T23:39:19.863Z,6.55
2022-08-29T23:41:47.678Z,6.15
2022-08-29T23:44:15.549Z,6.70
2022-08-29T23:46:43.379Z,6.35
2022-08-29T23:49:11.253Z,7.60
2022-08-29T23:51:40.425Z,7.13
2022-08-29T23:54:08.434Z,6.70
2022-08-29T23:56:36.288Z,6.78
2022-08-29T23:59:04.217Z,6.63
